sensor_id;sensor_type;location;lat;lon;timestamp;pressure;altitude;pressure_sealevel;temperature;humidity
20825;BME280;10573;50.936;6.978;2023-07-02T00:01:03;100406.88;;;18.69;69.12
20825;BME280;10573;50.936;6.978;2023-07-02T00:03:29;100400.97;;;18.78;68.68
20825;BME280;10573;50.936;6.978;2023-07-02T00:05:54;100395.41;;;18.65;68.72
20825;BME280;10573;50.936;6.978;2023-07-02T00:08:22;100397.13;;;18.73;68.36
20825;BME280;10573;50.936;6.978;2023-07-02T00:10:47;100401.56;;;18.60;68.39
20825;BME280;10573;50.936;6.978;2023-07-02T00:13:14;100391.38;;;18.68;68.08
20825;BME280;10573;50.936;6.978;2023-07-02T00:15:39;100392.69;;;18.78;67.71
20825;BME280;10573;50.936;6.978;2023-07-02T00:18:05;100401.75;;;18.59;67.83
20825;BME280;10573;50.936;6.978;2023-07-02T00:20:30;100399.47;;;18.76;67.63
20825;BME280;10573;50.936;6.978;2023-07-02T00:23:00;100403.69;;;18.65;67.74
20825;BME280;10573;50.936;6.978;2023-07-02T00:25:26;100392.47;;;18.73;67.45
20825;BME280;10573;50.936;6.978;2023-07-02T00:27:51;100396.28;;;18.72;67.52
20825;BME280;10573;50.936;6.978;2023-07-02T00:30:17;100395.59;;;18.57;67.99
20825;BME280;10573;50.936;6.978;2023-07-02T00:32:42;100397.78;;;18.68;67.74
20825;BME280;10573;50.936;6.978;2023-07-02T00:35:08;100403.88;;;18.64;68.04
20825;BME280;10573;50.936;6.978;2023-07-02T00:37:33;100399.25;;;18.64;67.74
20825;BME280;10573;50.936;6.978;2023-07-02T00:39:59;100390.47;;;18.47;68.42
20825;BME280;10573;50.936;6.978;2023-07-02T00:42:24;100399.38;;;18.42;68.50
20825;BME280;10573;50.936;6.978;2023-07-02T00:44:55;100394.50;;;18.44;68.29
20825;BME280;10573;50.936;6.978;2023-07-02T00:47:22;100403.44;;;18.53;67.88
20825;BME280;10573;50.936;6.978;2023-07-02T00:49:48;100396.63;;;18.42;68.22
20825;BME280;10573;50.936;6.978;2023-07-02T00:52:14;100391.94;;;18.43;67.24
20825;BME280;10573;50.936;6.978;2023-07-02T00:54:40;100387.06;;;18.45;67.49
20825;BME280;10573;50.936;6.978;2023-07-02T00:57:06;100393.00;;;18.42;67.07
20825;BME280;10573;50.936;6.978;2023-07-02T00:59:32;100390.22;;;18.42;66.86
20825;BME280;10573;50.936;6.978;2023-07-02T01:02:01;100391.53;;;18.53;66.58
20825;BME280;10573;50.936;6.978;2023-07-02T01:04:26;100386.00;;;18.46;66.66
20825;BME280;10573;50.936;6.978;2023-07-02T01:06:53;100391.53;;;18.53;66.34
20825;BME280;10573;50.936;6.978;2023-07-02T01:09:23;100395.28;;;18.32;66.58
20825;BME280;10573;50.936;6.978;2023-07-02T01:11:59;100400.41;;;18.35;65.90
20825;BME280;10573;50.936;6.978;2023-07-02T01:14:33;100401.25;;;18.35;65.55
20825;BME280;10573;50.936;6.978;2023-07-02T01:17:01;100396.06;;;18.19;65.43
20825;BME280;10573;50.936;6.978;2023-07-02T01:19:44;100391.22;;;18.27;65.11
20825;BME280;10573;50.936;6.978;2023-07-02T01:22:11;100402.47;;;18.26;65.23
20825;BME280;10573;50.936;6.978;2023-07-02T01:24:40;100388.38;;;18.07;65.22
20825;BME280;10573;50.936;6.978;2023-07-02T01:27:06;100388.28;;;18.29;64.87
20825;BME280;10573;50.936;6.978;2023-07-02T01:29:32;100388.22;;;18.16;64.75
20825;BME280;10573;50.936;6.978;2023-07-02T01:32:02;100393.16;;;18.27;64.43
20825;BME280;10573;50.936;6.978;2023-07-02T01:34:28;100388.16;;;18.02;64.64
20825;BME280;10573;50.936;6.978;2023-07-02T01:36:53;100390.56;;;18.19;64.24
20825;BME280;10573;50.936;6.978;2023-07-02T01:39:18;100387.94;;;18.04;64.66
20825;BME280;10573;50.936;6.978;2023-07-02T01:41:49;100380.28;;;17.99;64.39
20825;BME280;10573;50.936;6.978;2023-07-02T01:44:16;100376.53;;;18.14;64.11
20825;BME280;10573;50.936;6.978;2023-07-02T01:46:41;100389.63;;;17.98;64.45
20825;BME280;10573;50.936;6.978;2023-07-02T01:49:06;100380.28;;;17.99;64.18
20825;BME280;10573;50.936;6.978;2023-07-02T01:51:33;100376.22;;;17.95;64.32
20825;BME280;10573;50.936;6.978;2023-07-02T01:53:59;100379.00;;;18.02;63.79
20825;BME280;10573;50.936;6.978;2023-07-02T01:56:24;100395.00;;;17.85;64.25
20825;BME280;10573;50.936;6.978;2023-07-02T01:58:50;100382.41;;;17.97;63.86
20825;BME280;10573;50.936;6.978;2023-07-02T02:01:15;100385.91;;;17.91;64.10
20825;BME280;10573;50.936;6.978;2023-07-02T02:03:41;100384.28;;;17.68;64.64
20825;BME280;10573;50.936;6.978;2023-07-02T02:06:07;100392.56;;;17.97;63.71
20825;BME280;10573;50.936;6.978;2023-07-02T02:08:32;100390.91;;;18.02;63.76
20825;BME280;10573;50.936;6.978;2023-07-02T02:10:57;100395.31;;;17.97;63.40
20825;BME280;10573;50.936;6.978;2023-07-02T02:13:23;100400.31;;;18.15;63.13
20825;BME280;10573;50.936;6.978;2023-07-02T02:15:48;100399.41;;;18.07;63.28
20825;BME280;10573;50.936;6.978;2023-07-02T02:18:13;100393.41;;;17.97;63.48
20825;BME280;10573;50.936;6.978;2023-07-02T02:20:40;100404.03;;;18.00;63.29
20825;BME280;10573;50.936;6.978;2023-07-02T02:23:05;100404.25;;;17.99;63.42
20825;BME280;10573;50.936;6.978;2023-07-02T02:25:31;100409.50;;;17.93;63.81
20825;BME280;10573;50.936;6.978;2023-07-02T02:27:56;100406.41;;;17.82;63.85
20825;BME280;10573;50.936;6.978;2023-07-02T02:30:21;100402.63;;;17.83;63.92
20825;BME280;10573;50.936;6.978;2023-07-02T02:32:47;100405.69;;;17.94;63.49
20825;BME280;10573;50.936;6.978;2023-07-02T02:35:14;100398.72;;;17.70;64.06
20825;BME280;10573;50.936;6.978;2023-07-02T02:37:40;100399.69;;;17.91;63.52
20825;BME280;10573;50.936;6.978;2023-07-02T02:40:07;100408.34;;;17.81;63.55
20825;BME280;10573;50.936;6.978;2023-07-02T02:42:34;100404.19;;;17.92;63.41
20825;BME280;10573;50.936;6.978;2023-07-02T02:44:59;100396.94;;;17.91;63.19
20825;BME280;10573;50.936;6.978;2023-07-02T02:47:25;100404.72;;;17.81;63.42
20825;BME280;10573;50.936;6.978;2023-07-02T02:49:50;100397.44;;;17.94;63.28
20825;BME280;10573;50.936;6.978;2023-07-02T02:52:15;100394.06;;;17.71;63.66
20825;BME280;10573;50.936;6.978;2023-07-02T02:54:41;100385.19;;;17.75;63.40
20825;BME280;10573;50.936;6.978;2023-07-02T02:57:06;100389.16;;;17.94;63.08
20825;BME280;10573;50.936;6.978;2023-07-02T02:59:32;100379.44;;;17.99;63.07
20825;BME280;10573;50.936;6.978;2023-07-02T03:01:57;100380.56;;;17.83;63.54
20825;BME280;10573;50.936;6.978;2023-07-02T03:04:23;100386.50;;;17.80;63.72
20825;BME280;10573;50.936;6.978;2023-07-02T03:06:50;100391.59;;;17.83;63.43
20825;BME280;10573;50.936;6.978;2023-07-02T03:09:16;100402.72;;;17.96;63.17
20825;BME280;10573;50.936;6.978;2023-07-02T03:11:42;100421.41;;;17.72;63.70
20825;BME280;10573;50.936;6.978;2023-07-02T03:14:07;100422.94;;;17.82;63.59
20825;BME280;10573;50.936;6.978;2023-07-02T03:16:33;100426.91;;;18.01;63.29
20825;BME280;10573;50.936;6.978;2023-07-02T03:18:58;100425.44;;;17.98;62.94
20825;BME280;10573;50.936;6.978;2023-07-02T03:21:24;100431.00;;;17.83;63.39
20825;BME280;10573;50.936;6.978;2023-07-02T03:23:49;100432.47;;;18.07;63.16
20825;BME280;10573;50.936;6.978;2023-07-02T03:26:15;100437.91;;;17.94;63.22
20825;BME280;10573;50.936;6.978;2023-07-02T03:28:40;100442.09;;;17.90;63.21
20825;BME280;10573;50.936;6.978;2023-07-02T03:31:06;100438.78;;;17.94;63.10
20825;BME280;10573;50.936;6.978;2023-07-02T03:33:32;100440.56;;;17.87;63.08
20825;BME280;10573;50.936;6.978;2023-07-02T03:35:57;100436.72;;;17.82;63.34
20825;BME280;10573;50.936;6.978;2023-07-02T03:38:23;100436.94;;;17.80;63.45
20825;BME280;10573;50.936;6.978;2023-07-02T03:40:49;100435.69;;;17.83;63.46
20825;BME280;10573;50.936;6.978;2023-07-02T03:43:14;100438.19;;;17.77;63.75
20825;BME280;10573;50.936;6.978;2023-07-02T03:45:40;100438.66;;;17.81;63.69
20825;BME280;10573;50.936;6.978;2023-07-02T03:48:05;100436.09;;;17.80;63.38
20825;BME280;10573;50.936;6.978;2023-07-02T03:50:31;100444.16;;;17.81;63.69
20825;BME280;10573;50.936;6.978;2023-07-02T03:52:56;100439.44;;;17.75;63.89
20825;BME280;10573;50.936;6.978;2023-07-02T03:55:21;100435.22;;;17.79;63.96
20825;BME280;10573;50.936;6.978;2023-07-02T03:57:47;100448.13;;;17.72;63.73
20825;BME280;10573;50.936;6.978;2023-07-02T04:00:12;100445.16;;;17.73;63.70
20825;BME280;10573;50.936;6.978;2023-07-02T04:02:38;100448.16;;;17.78;63.54
20825;BME280;10573;50.936;6.978;2023-07-02T04:05:03;100456.69;;;17.84;63.75
20825;BME280;10573;50.936;6.978;2023-07-02T04:07:29;100463.66;;;17.80;63.87
20825;BME280;10573;50.936;6.978;2023-07-02T04:09:55;100471.75;;;17.88;63.97
20825;BME280;10573;50.936;6.978;2023-07-02T04:12:20;100469.66;;;17.90;63.59
20825;BME280;10573;50.936;6.978;2023-07-02T04:14:46;100476.13;;;17.75;63.95
20825;BME280;10573;50.936;6.978;2023-07-02T04:17:11;100476.22;;;17.89;63.90
20825;BME280;10573;50.936;6.978;2023-07-02T04:19:37;100485.84;;;17.93;63.95
20825;BME280;10573;50.936;6.978;2023-07-02T04:22:02;100493.56;;;17.83;63.94
20825;BME280;10573;50.936;6.978;2023-07-02T04:24:28;100492.19;;;17.93;63.94
20825;BME280;10573;50.936;6.978;2023-07-02T04:26:53;100490.16;;;18.02;63.65
20825;BME280;10573;50.936;6.978;2023-07-02T04:29:19;100486.53;;;17.80;64.15
20825;BME280;10573;50.936;6.978;2023-07-02T04:31:44;100496.59;;;17.66;64.53
20825;BME280;10573;50.936;6.978;2023-07-02T04:34:09;100505.13;;;17.71;64.39
20825;BME280;10573;50.936;6.978;2023-07-02T04:36:35;100492.50;;;17.84;64.20
20825;BME280;10573;50.936;6.978;2023-07-02T04:39:00;100499.06;;;17.83;64.28
20825;BME280;10573;50.936;6.978;2023-07-02T04:41:26;100504.31;;;17.99;63.83
20825;BME280;10573;50.936;6.978;2023-07-02T04:43:52;100502.09;;;17.88;64.21
20825;BME280;10573;50.936;6.978;2023-07-02T04:46:18;100497.13;;;17.98;64.11
20825;BME280;10573;50.936;6.978;2023-07-02T04:48:43;100507.34;;;17.83;64.38
20825;BME280;10573;50.936;6.978;2023-07-02T04:51:08;100501.03;;;17.89;64.28
20825;BME280;10573;50.936;6.978;2023-07-02T04:53:34;100514.63;;;17.90;64.61
20825;BME280;10573;50.936;6.978;2023-07-02T04:55:59;100509.66;;;18.07;63.97
20825;BME280;10573;50.936;6.978;2023-07-02T04:58:26;100504.84;;;17.88;64.63
20825;BME280;10573;50.936;6.978;2023-07-02T05:00:52;100512.06;;;17.89;64.68
20825;BME280;10573;50.936;6.978;2023-07-02T05:03:17;100512.19;;;18.02;64.48
20825;BME280;10573;50.936;6.978;2023-07-02T05:05:43;100505.19;;;18.00;64.62
20825;BME280;10573;50.936;6.978;2023-07-02T05:08:08;100516.00;;;17.80;65.01
20825;BME280;10573;50.936;6.978;2023-07-02T05:10:34;100512.06;;;17.89;64.84
20825;BME280;10573;50.936;6.978;2023-07-02T05:12:59;100517.44;;;17.97;64.66
20825;BME280;10573;50.936;6.978;2023-07-02T05:15:25;100521.09;;;18.04;64.54
20825;BME280;10573;50.936;6.978;2023-07-02T05:17:51;100524.00;;;17.96;64.93
20825;BME280;10573;50.936;6.978;2023-07-02T05:20:16;100529.44;;;17.89;65.16
20825;BME280;10573;50.936;6.978;2023-07-02T05:22:42;100526.19;;;18.07;64.69
20825;BME280;10573;50.936;6.978;2023-07-02T05:25:07;100537.63;;;18.04;64.64
20825;BME280;10573;50.936;6.978;2023-07-02T05:27:33;100533.78;;;17.99;64.79
20825;BME280;10573;50.936;6.978;2023-07-02T05:29:58;100529.22;;;18.13;64.68
20825;BME280;10573;50.936;6.978;2023-07-02T05:32:24;100533.38;;;18.02;64.81
20825;BME280;10573;50.936;6.978;2023-07-02T05:34:49;100542.22;;;18.19;64.60
20825;BME280;10573;50.936;6.978;2023-07-02T05:37:14;100542.50;;;18.31;64.39
20825;BME280;10573;50.936;6.978;2023-07-02T05:39:40;100534.25;;;18.02;65.08
20825;BME280;10573;50.936;6.978;2023-07-02T05:42:05;100547.56;;;18.27;64.64
20825;BME280;10573;50.936;6.978;2023-07-02T05:44:31;100543.56;;;18.01;64.93
20825;BME280;10573;50.936;6.978;2023-07-02T05:46:56;100549.28;;;18.28;64.32
20825;BME280;10573;50.936;6.978;2023-07-02T05:49:22;100553.38;;;18.39;64.17
20825;BME280;10573;50.936;6.978;2023-07-02T05:51:47;100549.59;;;18.11;64.72
20825;BME280;10573;50.936;6.978;2023-07-02T05:54:13;100554.88;;;18.41;64.33
20825;BME280;10573;50.936;6.978;2023-07-02T05:56:38;100555.53;;;18.43;63.72
20825;BME280;10573;50.936;6.978;2023-07-02T05:59:03;100558.22;;;18.37;63.94
20825;BME280;10573;50.936;6.978;2023-07-02T06:01:29;100558.41;;;18.64;63.63
20825;BME280;10573;50.936;6.978;2023-07-02T06:03:54;100553.75;;;18.64;63.25
20825;BME280;10573;50.936;6.978;2023-07-02T06:06:21;100564.59;;;18.66;63.12
20825;BME280;10573;50.936;6.978;2023-07-02T06:08:50;100564.53;;;18.59;63.54
20825;BME280;10573;50.936;6.978;2023-07-02T06:11:16;100563.34;;;18.68;63.33
20825;BME280;10573;50.936;6.978;2023-07-02T06:13:42;100578.84;;;18.69;63.37
20825;BME280;10573;50.936;6.978;2023-07-02T06:16:07;100572.91;;;18.72;63.23
20825;BME280;10573;50.936;6.978;2023-07-02T06:18:33;100572.28;;;18.77;63.03
20825;BME280;10573;50.936;6.978;2023-07-02T06:20:58;100572.22;;;19.05;62.41
20825;BME280;10573;50.936;6.978;2023-07-02T06:23:23;100573.13;;;19.13;62.17
20825;BME280;10573;50.936;6.978;2023-07-02T06:25:49;100573.56;;;19.23;61.97
20825;BME280;10573;50.936;6.978;2023-07-02T06:28:17;100567.03;;;19.37;61.08
20825;BME280;10573;50.936;6.978;2023-07-02T06:30:42;100580.69;;;19.59;60.55
20825;BME280;10573;50.936;6.978;2023-07-02T06:33:08;100576.56;;;19.28;60.20
20825;BME280;10573;50.936;6.978;2023-07-02T06:35:33;100582.97;;;19.28;59.39
20825;BME280;10573;50.936;6.978;2023-07-02T06:37:58;100581.22;;;19.21;60.24
20825;BME280;10573;50.936;6.978;2023-07-02T06:40:24;100589.19;;;19.51;58.53
20825;BME280;10573;50.936;6.978;2023-07-02T06:42:49;100586.41;;;19.51;58.35
20825;BME280;10573;50.936;6.978;2023-07-02T06:45:15;100598.47;;;19.36;58.30
20825;BME280;10573;50.936;6.978;2023-07-02T06:47:40;100584.94;;;19.55;57.48
20825;BME280;10573;50.936;6.978;2023-07-02T06:50:06;100598.31;;;19.44;57.80
20825;BME280;10573;50.936;6.978;2023-07-02T06:52:31;100597.97;;;19.74;57.44
20825;BME280;10573;50.936;6.978;2023-07-02T06:54:56;100595.19;;;19.74;57.70
20825;BME280;10573;50.936;6.978;2023-07-02T06:57:22;100605.56;;;19.59;57.81
20825;BME280;10573;50.936;6.978;2023-07-02T06:59:48;100605.94;;;19.42;57.86
20825;BME280;10573;50.936;6.978;2023-07-02T07:02:14;100606.47;;;19.79;56.97
20825;BME280;10573;50.936;6.978;2023-07-02T07:04:39;100611.44;;;19.36;57.16
20825;BME280;10573;50.936;6.978;2023-07-02T07:07:05;100619.19;;;19.74;56.95
20825;BME280;10573;50.936;6.978;2023-07-02T07:09:31;100617.03;;;19.56;57.65
20825;BME280;10573;50.936;6.978;2023-07-02T07:11:56;100616.25;;;19.75;57.81
20825;BME280;10573;50.936;6.978;2023-07-02T07:14:22;100625.22;;;19.91;56.94
20825;BME280;10573;50.936;6.978;2023-07-02T07:16:48;100621.63;;;19.84;56.65
20825;BME280;10573;50.936;6.978;2023-07-02T07:19:13;100623.94;;;19.87;56.19
20825;BME280;10573;50.936;6.978;2023-07-02T07:21:39;100631.19;;;19.88;56.87
20825;BME280;10573;50.936;6.978;2023-07-02T07:24:05;100619.66;;;19.77;56.24
20825;BME280;10573;50.936;6.978;2023-07-02T07:26:31;100625.78;;;19.66;56.38
20825;BME280;10573;50.936;6.978;2023-07-02T07:28:56;100619.94;;;19.96;56.39
20825;BME280;10573;50.936;6.978;2023-07-02T07:31:23;100624.41;;;20.10;56.58
20825;BME280;10573;50.936;6.978;2023-07-02T07:33:49;100623.97;;;20.14;53.80
20825;BME280;10573;50.936;6.978;2023-07-02T07:36:14;100623.78;;;20.35;54.06
20825;BME280;10573;50.936;6.978;2023-07-02T07:38:43;100626.31;;;20.17;54.72
20825;BME280;10573;50.936;6.978;2023-07-02T07:41:08;100629.97;;;20.37;53.71
20825;BME280;10573;50.936;6.978;2023-07-02T07:43:34;100626.31;;;20.03;53.86
20825;BME280;10573;50.936;6.978;2023-07-02T07:45:59;100623.56;;;20.30;52.85
20825;BME280;10573;50.936;6.978;2023-07-02T07:48:25;100618.44;;;20.34;52.64
20825;BME280;10573;50.936;6.978;2023-07-02T07:50:50;100629.50;;;20.07;52.49
20825;BME280;10573;50.936;6.978;2023-07-02T07:53:15;100619.94;;;20.56;51.13
20825;BME280;10573;50.936;6.978;2023-07-02T07:55:41;100632.69;;;20.64;51.51
20825;BME280;10573;50.936;6.978;2023-07-02T07:58:06;100623.75;;;20.75;50.42
20825;BME280;10573;50.936;6.978;2023-07-02T08:00:32;100625.66;;;20.68;50.38
20825;BME280;10573;50.936;6.978;2023-07-02T08:02:57;100622.25;;;20.66;50.06
20825;BME280;10573;50.936;6.978;2023-07-02T08:05:24;100634.25;;;21.25;49.68
20825;BME280;10573;50.936;6.978;2023-07-02T08:07:50;100627.22;;;21.29;48.77
20825;BME280;10573;50.936;6.978;2023-07-02T08:10:16;100628.16;;;21.03;49.55
20825;BME280;10573;50.936;6.978;2023-07-02T08:12:41;100627.28;;;21.09;48.89
20825;BME280;10573;50.936;6.978;2023-07-02T08:15:07;100629.47;;;20.94;47.73
20825;BME280;10573;50.936;6.978;2023-07-02T08:17:32;100637.97;;;20.99;48.41
20825;BME280;10573;50.936;6.978;2023-07-02T08:19:58;100638.63;;;20.94;47.60
20825;BME280;10573;50.936;6.978;2023-07-02T08:22:23;100633.56;;;21.43;47.13
20825;BME280;10573;50.936;6.978;2023-07-02T08:24:49;100639.59;;;21.20;47.52
20825;BME280;10573;50.936;6.978;2023-07-02T08:27:15;100641.97;;;21.17;48.42
20825;BME280;10573;50.936;6.978;2023-07-02T08:29:44;100652.16;;;21.23;47.50
20825;BME280;10573;50.936;6.978;2023-07-02T08:32:09;100656.94;;;21.02;47.98
20825;BME280;10573;50.936;6.978;2023-07-02T08:34:35;100657.59;;;20.91;48.47
20825;BME280;10573;50.936;6.978;2023-07-02T08:37:00;100654.59;;;21.06;48.26
20825;BME280;10573;50.936;6.978;2023-07-02T08:39:26;100658.34;;;21.32;48.19
20825;BME280;10573;50.936;6.978;2023-07-02T08:41:51;100661.13;;;21.25;48.23
20825;BME280;10573;50.936;6.978;2023-07-02T08:44:20;100661.34;;;21.30;48.42
20825;BME280;10573;50.936;6.978;2023-07-02T08:46:46;100666.88;;;21.30;48.65
20825;BME280;10573;50.936;6.978;2023-07-02T08:49:16;100647.69;;;21.28;47.05
20825;BME280;10573;50.936;6.978;2023-07-02T08:51:44;100646.63;;;21.23;46.25
20825;BME280;10573;50.936;6.978;2023-07-02T08:54:10;100661.75;;;21.27;45.47
20825;BME280;10573;50.936;6.978;2023-07-02T08:56:35;100657.09;;;21.21;46.28
20825;BME280;10573;50.936;6.978;2023-07-02T08:59:00;100661.47;;;21.49;46.99
20825;BME280;10573;50.936;6.978;2023-07-02T09:01:26;100658.31;;;21.90;45.58
20825;BME280;10573;50.936;6.978;2023-07-02T09:03:57;100642.75;;;21.83;45.15
20825;BME280;10573;50.936;6.978;2023-07-02T09:06:23;100651.69;;;21.85;43.93
20825;BME280;10573;50.936;6.978;2023-07-02T09:08:49;100655.28;;;21.46;44.94
20825;BME280;10573;50.936;6.978;2023-07-02T09:11:15;100660.47;;;21.23;45.88
20825;BME280;10573;50.936;6.978;2023-07-02T09:13:45;100658.97;;;21.27;46.57
20825;BME280;10573;50.936;6.978;2023-07-02T09:16:24;100669.03;;;21.15;46.70
20825;BME280;10573;50.936;6.978;2023-07-02T09:18:56;100666.03;;;21.16;46.46
20825;BME280;10573;50.936;6.978;2023-07-02T09:21:22;100663.81;;;21.45;45.94
20825;BME280;10573;50.936;6.978;2023-07-02T09:23:47;100665.94;;;21.56;46.57
20825;BME280;10573;50.936;6.978;2023-07-02T09:26:19;100668.09;;;21.93;45.62
20825;BME280;10573;50.936;6.978;2023-07-02T09:28:45;100663.69;;;21.78;45.67
20825;BME280;10573;50.936;6.978;2023-07-02T09:31:10;100667.56;;;21.71;46.49
20825;BME280;10573;50.936;6.978;2023-07-02T09:33:35;100666.13;;;22.00;46.26
20825;BME280;10573;50.936;6.978;2023-07-02T09:36:02;100662.28;;;22.01;45.86
20825;BME280;10573;50.936;6.978;2023-07-02T09:38:27;100665.97;;;22.20;45.61
20825;BME280;10573;50.936;6.978;2023-07-02T09:40:52;100664.78;;;22.09;45.60
20825;BME280;10573;50.936;6.978;2023-07-02T09:43:18;100668.00;;;21.74;46.53
20825;BME280;10573;50.936;6.978;2023-07-02T09:45:45;100668.78;;;21.29;48.00
20825;BME280;10573;50.936;6.978;2023-07-02T09:48:13;100666.63;;;21.38;47.51
20825;BME280;10573;50.936;6.978;2023-07-02T09:50:45;100659.72;;;21.61;47.40
20825;BME280;10573;50.936;6.978;2023-07-02T09:53:12;100665.53;;;21.91;47.02
20825;BME280;10573;50.936;6.978;2023-07-02T09:55:43;100673.47;;;21.88;46.81
20825;BME280;10573;50.936;6.978;2023-07-02T09:58:09;100665.28;;;22.00;46.46
20825;BME280;10573;50.936;6.978;2023-07-02T10:00:35;100652.75;;;23.17;44.26
20825;BME280;10573;50.936;6.978;2023-07-02T10:03:00;100649.34;;;23.33;43.56
20825;BME280;10573;50.936;6.978;2023-07-02T10:05:29;100659.06;;;23.91;42.64
20825;BME280;10573;50.936;6.978;2023-07-02T10:08:14;100644.31;;;24.57;41.08
20825;BME280;10573;50.936;6.978;2023-07-02T10:10:41;100650.63;;;25.11;39.53
20825;BME280;10573;50.936;6.978;2023-07-02T10:13:07;100645.28;;;24.51;41.14
20825;BME280;10573;50.936;6.978;2023-07-02T10:15:32;100661.31;;;23.83;40.79
20825;BME280;10573;50.936;6.978;2023-07-02T10:18:02;100665.00;;;23.09;42.95
20825;BME280;10573;50.936;6.978;2023-07-02T10:20:38;100661.09;;;22.48;43.44
20825;BME280;10573;50.936;6.978;2023-07-02T10:23:04;100670.41;;;21.96;45.26
20825;BME280;10573;50.936;6.978;2023-07-02T10:25:34;100669.47;;;22.09;45.23
20825;BME280;10573;50.936;6.978;2023-07-02T10:28:21;100672.00;;;22.17;45.19
20825;BME280;10573;50.936;6.978;2023-07-02T10:30:47;100668.22;;;22.05;44.80
20825;BME280;10573;50.936;6.978;2023-07-02T10:33:13;100673.38;;;22.26;45.08
20825;BME280;10573;50.936;6.978;2023-07-02T10:35:39;100658.25;;;22.22;44.00
20825;BME280;10573;50.936;6.978;2023-07-02T10:38:07;100659.44;;;21.76;43.48
20825;BME280;10573;50.936;6.978;2023-07-02T10:40:32;100656.78;;;22.20;42.68
20825;BME280;10573;50.936;6.978;2023-07-02T10:43:01;100658.69;;;22.26;42.45
20825;BME280;10573;50.936;6.978;2023-07-02T10:45:33;100660.38;;;22.27;42.84
20825;BME280;10573;50.936;6.978;2023-07-02T10:47:58;100653.06;;;22.33;43.52
20825;BME280;10573;50.936;6.978;2023-07-02T10:50:24;100661.94;;;21.84;44.27
20825;BME280;10573;50.936;6.978;2023-07-02T10:52:50;100670.94;;;21.79;44.98
20825;BME280;10573;50.936;6.978;2023-07-02T10:55:16;100661.19;;;21.70;45.52
20825;BME280;10573;50.936;6.978;2023-07-02T10:57:42;100678.81;;;21.83;45.81
20825;BME280;10573;50.936;6.978;2023-07-02T11:00:08;100680.44;;;21.52;45.67
20825;BME280;10573;50.936;6.978;2023-07-02T11:02:34;100681.25;;;21.52;46.25
20825;BME280;10573;50.936;6.978;2023-07-02T11:05:00;100675.34;;;21.49;46.05
20825;BME280;10573;50.936;6.978;2023-07-02T11:07:25;100676.19;;;21.56;46.40
20825;BME280;10573;50.936;6.978;2023-07-02T11:09:50;100673.19;;;21.57;45.93
20825;BME280;10573;50.936;6.978;2023-07-02T11:12:16;100675.59;;;21.86;45.51
20825;BME280;10573;50.936;6.978;2023-07-02T11:14:41;100670.88;;;21.93;45.36
20825;BME280;10573;50.936;6.978;2023-07-02T11:17:07;100678.47;;;22.04;45.04
20825;BME280;10573;50.936;6.978;2023-07-02T11:19:33;100674.72;;;21.92;43.81
20825;BME280;10573;50.936;6.978;2023-07-02T11:21:58;100675.66;;;22.11;43.21
20825;BME280;10573;50.936;6.978;2023-07-02T11:26:55;100668.41;;;23.29;41.55
20825;BME280;10573;50.936;6.978;2023-07-02T11:29:21;100666.78;;;23.59;40.19
20825;BME280;10573;50.936;6.978;2023-07-02T11:31:46;100672.19;;;23.35;40.78
20825;BME280;10573;50.936;6.978;2023-07-02T11:34:17;100667.72;;;23.34;40.73
20825;BME280;10573;50.936;6.978;2023-07-02T11:36:42;100678.75;;;22.78;42.07
20825;BME280;10573;50.936;6.978;2023-07-02T11:39:08;100687.22;;;22.65;42.80
20825;BME280;10573;50.936;6.978;2023-07-02T11:41:40;100684.25;;;22.85;42.53
20825;BME280;10573;50.936;6.978;2023-07-02T11:44:05;100673.22;;;23.41;41.50
20825;BME280;10573;50.936;6.978;2023-07-02T11:46:31;100672.66;;;23.32;42.00
20825;BME280;10573;50.936;6.978;2023-07-02T11:48:56;100671.81;;;23.32;42.39
20825;BME280;10573;50.936;6.978;2023-07-02T11:51:22;100685.78;;;22.81;43.50
20825;BME280;10573;50.936;6.978;2023-07-02T11:53:47;100678.38;;;23.19;42.85
20825;BME280;10573;50.936;6.978;2023-07-02T11:56:12;100686.25;;;23.40;41.67
20825;BME280;10573;50.936;6.978;2023-07-02T11:58:38;100676.72;;;24.27;39.46
20825;BME280;10573;50.936;6.978;2023-07-02T12:01:03;100658.66;;;24.72;37.91
20825;BME280;10573;50.936;6.978;2023-07-02T12:03:29;100662.28;;;24.85;38.13
20825;BME280;10573;50.936;6.978;2023-07-02T12:05:55;100663.13;;;24.73;38.10
20825;BME280;10573;50.936;6.978;2023-07-02T12:08:21;100669.59;;;24.32;38.23
20825;BME280;10573;50.936;6.978;2023-07-02T12:10:46;100672.78;;;24.05;37.91
20825;BME280;10573;50.936;6.978;2023-07-02T12:13:11;100673.72;;;23.68;37.07
20825;BME280;10573;50.936;6.978;2023-07-02T12:15:37;100670.34;;;23.29;37.77
20825;BME280;10573;50.936;6.978;2023-07-02T12:18:02;100670.28;;;23.17;38.19
20825;BME280;10573;50.936;6.978;2023-07-02T12:20:27;100663.06;;;23.09;38.17
20825;BME280;10573;50.936;6.978;2023-07-02T12:22:53;100670.59;;;22.84;38.22
20825;BME280;10573;50.936;6.978;2023-07-02T12:25:18;100663.19;;;22.96;37.49
20825;BME280;10573;50.936;6.978;2023-07-02T12:27:43;100657.69;;;23.33;37.01
20825;BME280;10573;50.936;6.978;2023-07-02T12:30:09;100655.97;;;23.32;36.44
20825;BME280;10573;50.936;6.978;2023-07-02T12:32:34;100662.78;;;23.18;35.89
20825;BME280;10573;50.936;6.978;2023-07-02T12:34:59;100663.59;;;23.00;35.32
20825;BME280;10573;50.936;6.978;2023-07-02T12:37:25;100662.22;;;23.09;35.06
20825;BME280;10573;50.936;6.978;2023-07-02T12:39:50;100667.41;;;23.61;34.99
20825;BME280;10573;50.936;6.978;2023-07-02T12:42:16;100660.50;;;24.24;34.59
20825;BME280;10573;50.936;6.978;2023-07-02T12:44:41;100666.50;;;23.98;34.33
20825;BME280;10573;50.936;6.978;2023-07-02T12:47:06;100661.31;;;24.01;34.46